Philadelphia, Pennsylvania
Traffic Map
Current Weather Conditions
Philadelphia, Pennsylvania
Broken Clouds
Broken Clouds
25°
Feels Like: 10°
Wind Chill: 10° Ceiling: 4400
Heat Index: 25° Visibility: 10mi
Dew Point: -2° Wind: 24mph
Humidity: 31% Direction: 260° (W)
Pressure: 30.03in Gusts: 30mph
Raw Report DataKPHL 111654Z 26021G26KT 10SM BKN044 BKN060 M04/M19 A3003 RMK AO2 PK WND 27028/1611 SLP170 VIRGA T10391189 $
Traffic Incident Summary
Active as of:
Severity:
Category:
InformationThere was an issue retrieving the traffic information for this location. Please try a different location or try again shortly.
Advertisements
Track Severe Weather on mobile